Private Wetterstation Sandau
Wetterdaten: Sonntag, 25.11.2012
Datum Zeit Temp. A. Feuchte A. Luftdruck Regen Wind Richtung Richtung Taupunkt Windchill
25.11.2012 00:01 5,0 C 94 % 1018,4 hPa 0,0 l/m 6,8 km/h (2 Bft) O-NO 67 4,1 C 3,5 C
25.11.2012 00:06 5,0 C 94 % 1018,2 hPa 0,5 l/m 4,0 km/h (1 Bft) O-SO 112 4,1 C 5,0 C
25.11.2012 00:11 5,0 C 94 % 1018,2 hPa 0,0 l/m 7,6 km/h (2 Bft) O-SO 112 4,1 C 3,2 C
25.11.2012 00:16 5,1 C 94 % 1018,2 hPa 0,0 l/m 11,2 km/h (2 Bft) O-SO 112 4,2 C 2,5 C
25.11.2012 00:21 5,1 C 94 % 1018,2 hPa 0,0 l/m 8,6 km/h (2 Bft) O-SO 112 4,2 C 3,1 C
25.11.2012 00:26 5,1 C 94 % 1017,9 hPa 0,0 l/m 5,8 km/h (2 Bft) SO 135 4,2 C 3,9 C
25.11.2012 00:31 5,1 C 94 % 1018,1 hPa 0,5 l/m 7,2 km/h (2 Bft) SO 135 4,2 C 3,5 C
25.11.2012 00:36 5,1 C 94 % 1017,9 hPa 0,0 l/m 10,1 km/h (2 Bft) O-NO 67 4,2 C 2,8 C
25.11.2012 00:41 5,1 C 94 % 1017,7 hPa 0,0 l/m 11,9 km/h (2 Bft) SO 135 4,2 C 2,4 C
25.11.2012 00:46 5,1 C 94 % 1017,5 hPa 0,0 l/m 12,2 km/h (2 Bft) O 90 4,2 C 2,3 C
25.11.2012 00:51 5,1 C 94 % 1017,7 hPa 0,0 l/m 9,7 km/h (2 Bft) O-SO 112 4,2 C 2,8 C
25.11.2012 00:56 5,1 C 94 % 1017,3 hPa 0,0 l/m 11,9 km/h (2 Bft) O-SO 112 4,2 C 2,4 C
25.11.2012 01:01 5,1 C 94 % 1017,2 hPa 0,0 l/m 10,1 km/h (2 Bft) SO 135 4,2 C 2,8 C
25.11.2012 01:06 5,1 C 94 % 1017,4 hPa 0,0 l/m 6,1 km/h (2 Bft) O-SO 112 4,2 C 3,8 C
25.11.2012 01:11 5,2 C 94 % 1017,2 hPa 0,0 l/m 10,1 km/h (2 Bft) NO 45 4,3 C 2,9 C
25.11.2012 01:16 5,2 C 94 % 1017,0 hPa 0,0 l/m 8,6 km/h (2 Bft) O-SO 112 4,3 C 3,2 C
25.11.2012 01:21 5,2 C 94 % 1017,1 hPa 0,0 l/m 7,6 km/h (2 Bft) O 90 4,3 C 3,5 C
25.11.2012 01:26 5,3 C 95 % 1017,0 hPa 0,0 l/m 3,2 km/h (1 Bft) O-NO 67 4,6 C 5,3 C
25.11.2012 01:31 5,3 C 95 % 1017,1 hPa 0,0 l/m 6,8 km/h (2 Bft) O-SO 112 4,6 C 3,8 C
25.11.2012 01:36 5,3 C 95 % 1017,0 hPa 0,0 l/m 4,7 km/h (1 Bft) O 90 4,6 C 4,5 C
25.11.2012 01:41 5,3 C 95 % 1017,0 hPa 0,0 l/m 7,6 km/h (2 Bft) O-SO 112 4,6 C 3,6 C
25.11.2012 01:46 5,3 C 95 % 1017,0 hPa 0,0 l/m 4,3 km/h (1 Bft) SO 135 4,6 C 5,3 C
25.11.2012 01:51 5,4 C 95 % 1017,0 hPa 0,0 l/m 7,2 km/h (2 Bft) O-SO 112 4,7 C 3,8 C
25.11.2012 01:56 5,4 C 95 % 1016,8 hPa 0,0 l/m 6,1 km/h (2 Bft) SO 135 4,7 C 4,2 C
25.11.2012 02:01 5,4 C 95 % 1017,0 hPa 0,0 l/m 3,6 km/h (1 Bft) O-SO 112 4,7 C 5,4 C
25.11.2012 02:06 5,4 C 95 % 1016,9 hPa 0,0 l/m 9,7 km/h (2 Bft) SO 135 4,7 C 3,2 C
25.11.2012 02:11 5,5 C 95 % 1017,0 hPa 0,0 l/m 4,0 km/h (1 Bft) O-SO 112 4,8 C 5,5 C
25.11.2012 02:16 5,5 C 95 % 1017,1 hPa 0,0 l/m 2,9 km/h (1 Bft) SO 135 4,8 C 5,5 C
25.11.2012 02:21 5,5 C 95 % 1016,7 hPa 0,0 l/m 10,8 km/h (2 Bft) SO 135 4,8 C 3,1 C
25.11.2012 02:26 5,5 C 95 % 1016,6 hPa 0,0 l/m 6,1 km/h (2 Bft) SO 135 4,8 C 4,3 C
25.11.2012 02:31 5,6 C 95 % 1016,5 hPa 0,0 l/m 6,1 km/h (2 Bft) O-SO 112 4,9 C 4,4 C
25.11.2012 02:36 5,6 C 95 % 1016,5 hPa 0,0 l/m 4,0 km/h (1 Bft) O-NO 67 4,9 C 5,6 C
25.11.2012 02:41 5,6 C 95 % 1016,4 hPa 0,0 l/m 9,0 km/h (2 Bft) O-SO 112 4,9 C 3,6 C
25.11.2012 02:46 5,6 C 95 % 1016,4 hPa 0,0 l/m 5,8 km/h (2 Bft) O 90 4,9 C 4,5 C
25.11.2012 02:51 5,6 C 95 % 1016,1 hPa 0,0 l/m 4,3 km/h (1 Bft) O-NO 67 4,9 C 5,6 C
25.11.2012 02:56 5,6 C 95 % 1015,9 hPa 0,0 l/m 6,8 km/h (2 Bft) O 90 4,9 C 4,2 C
25.11.2012 03:01 5,6 C 95 % 1015,7 hPa 0,0 l/m 3,2 km/h (1 Bft) O-NO 67 4,9 C 5,6 C
25.11.2012 03:06 5,6 C 95 % 1015,7 hPa 0,0 l/m 4,0 km/h (1 Bft) O-NO 67 4,9 C 5,6 C
25.11.2012 03:11 5,8 C 95 % 1015,7 hPa 0,0 l/m 4,7 km/h (1 Bft) O-NO 67 5,1 C 5,1 C
25.11.2012 03:16 5,8 C 95 % 1015,8 hPa 0,0 l/m 3,6 km/h (1 Bft) SO 135 5,1 C 5,8 C
25.11.2012 03:21 5,8 C 95 % 1015,4 hPa 0,0 l/m 5,0 km/h (1 Bft) O-NO 67 5,1 C 5,0 C
25.11.2012 03:26 5,8 C 95 % 1015,2 hPa 0,0 l/m 7,2 km/h (2 Bft) O-SO 112 5,1 C 4,3 C
25.11.2012 03:31 5,8 C 95 % 1015,0 hPa 0,0 l/m 7,6 km/h (2 Bft) O-NO 67 5,1 C 4,2 C
25.11.2012 03:36 5,9 C 95 % 1015,0 hPa 0,0 l/m 6,8 km/h (2 Bft) O 90 5,2 C 4,5 C
25.11.2012 03:41 5,9 C 95 % 1015,3 hPa 0,0 l/m 6,8 km/h (2 Bft) SO 135 5,2 C 4,5 C
25.11.2012 03:46 5,9 C 95 % 1015,1 hPa 0,0 l/m 6,8 km/h (2 Bft) S-SO 157 5,2 C 4,5 C
25.11.2012 03:51 6,0 C 95 % 1015,0 hPa 0,0 l/m 14,8 km/h (3 Bft) O 90 5,3 C 3,0 C
25.11.2012 03:56 6,1 C 95 % 1015,0 hPa 0,0 l/m 7,9 km/h (2 Bft) O-SO 112 5,4 C 4,5 C
25.11.2012 04:01 6,1 C 95 % 1014,9 hPa 0,0 l/m 7,9 km/h (2 Bft) SO 135 5,4 C 4,5 C
25.11.2012 04:06 6,1 C 95 % 1014,7 hPa 0,0 l/m 15,8 km/h (3 Bft) O-SO 112 5,4 C 3,0 C
25.11.2012 04:11 6,1 C 95 % 1014,6 hPa 0,0 l/m 4,3 km/h (1 Bft) O 90 5,4 C 6,1 C
25.11.2012 04:16 6,1 C 95 % 1014,6 hPa 0,0 l/m 5,0 km/h (1 Bft) S-SO 157 5,4 C 5,3 C
25.11.2012 04:21 6,1 C 95 % 1014,5 hPa 0,0 l/m 9,7 km/h (2 Bft) O 90 5,4 C 4,0 C
25.11.2012 04:26 6,1 C 95 % 1014,5 hPa 0,0 l/m 12,6 km/h (3 Bft) SO 135 5,4 C 3,5 C
25.11.2012 04:31 6,1 C 95 % 1014,5 hPa 0,0 l/m 6,1 km/h (2 Bft) O-SO 112 5,4 C 5,0 C
25.11.2012 04:36 6,1 C 95 % 1014,6 hPa 0,0 l/m 6,8 km/h (2 Bft) O-SO 112 5,4 C 4,7 C
25.11.2012 04:41 6,1 C 95 % 1014,1 hPa 0,0 l/m 11,9 km/h (2 Bft) S-SO 157 5,4 C 3,6 C
25.11.2012 04:46 6,1 C 95 % 1014,0 hPa 0,0 l/m 11,2 km/h (2 Bft) SO 135 5,4 C 3,7 C
25.11.2012 04:51 6,2 C 95 % 1014,0 hPa 0,0 l/m 11,2 km/h (2 Bft) O-SO 112 5,5 C 3,9 C
25.11.2012 04:56 6,2 C 95 % 1013,9 hPa 0,0 l/m 6,5 km/h (2 Bft) SO 135 5,5 C 4,9 C
25.11.2012 05:01 6,2 C 95 % 1013,7 hPa 0,0 l/m 9,7 km/h (2 Bft) SO 135 5,5 C 4,2 C
25.11.2012 05:06 6,2 C 95 % 1013,8 hPa 0,0 l/m 7,2 km/h (2 Bft) O-SO 112 5,5 C 4,8 C
25.11.2012 05:11 6,2 C 95 % 1013,4 hPa 0,0 l/m 6,5 km/h (2 Bft) SO 135 5,5 C 4,9 C
25.11.2012 05:16 6,2 C 95 % 1013,4 hPa 0,0 l/m 3,2 km/h (1 Bft) O 90 5,5 C 6,2 C
25.11.2012 05:21 6,2 C 95 % 1013,1 hPa 0,0 l/m 18,4 km/h (3 Bft) S-SO 157 5,5 C 2,8 C
25.11.2012 05:26 6,2 C 95 % 1013,1 hPa 0,0 l/m 10,8 km/h (2 Bft) O-SO 112 5,5 C 3,9 C
25.11.2012 05:31 6,2 C 95 % 1013,0 hPa 0,0 l/m 16,6 km/h (3 Bft) S-SO 157 5,5 C 3,0 C
25.11.2012 05:36 6,2 C 95 % 1013,1 hPa 0,0 l/m 13,7 km/h (3 Bft) SO 135 5,5 C 3,4 C
25.11.2012 05:41 6,2 C 95 % 1013,0 hPa 0,0 l/m 8,3 km/h (2 Bft) SO 135 5,5 C 4,5 C
25.11.2012 05:46 6,2 C 95 % 1013,1 hPa 0,0 l/m 14,8 km/h (3 Bft) SO 135 5,5 C 3,3 C
25.11.2012 05:51 6,2 C 95 % 1012,8 hPa 0,0 l/m 13,7 km/h (3 Bft) O-SO 112 5,5 C 3,4 C
25.11.2012 05:56 6,2 C 95 % 1012,8 hPa 0,0 l/m 15,1 km/h (3 Bft) SO 135 5,5 C 3,2 C
25.11.2012 06:01 6,2 C 95 % 1012,5 hPa 0,0 l/m 7,6 km/h (2 Bft) O 90 5,5 C 4,6 C
25.11.2012 06:06 6,2 C 94 % 1012,4 hPa 0,0 l/m 7,2 km/h (2 Bft) O 90 5,3 C 4,8 C
25.11.2012 06:11 6,1 C 94 % 1012,3 hPa 0,0 l/m 14,8 km/h (3 Bft) SO 135 5,2 C 3,1 C
25.11.2012 06:16 6,1 C 94 % 1012,3 hPa 0,0 l/m 14,4 km/h (3 Bft) S-SO 157 5,2 C 3,2 C
25.11.2012 06:21 6,1 C 94 % 1012,4 hPa 0,0 l/m 5,0 km/h (1 Bft) SO 135 5,2 C 5,3 C
25.11.2012 06:26 6,1 C 94 % 1012,5 hPa 0,0 l/m 6,5 km/h (2 Bft) O-SO 112 5,2 C 4,8 C
25.11.2012 06:31 6,1 C 94 % 1012,2 hPa 0,0 l/m 10,1 km/h (2 Bft) S-SO 157 5,2 C 4,0 C
25.11.2012 06:36 6,1 C 94 % 1012,1 hPa 0,0 l/m 16,6 km/h (3 Bft) SO 135 5,2 C 2,9 C
25.11.2012 06:41 6,1 C 94 % 1011,8 hPa 0,0 l/m 18,0 km/h (3 Bft) SO 135 5,2 C 2,7 C
25.11.2012 06:46 6,1 C 94 % 1011,8 hPa 0,0 l/m 6,5 km/h (2 Bft) SO 135 5,2 C 4,8 C
25.11.2012 06:51 6,1 C 94 % 1011,8 hPa 0,0 l/m 6,8 km/h (2 Bft) SO 135 5,2 C 4,7 C
25.11.2012 06:56 6,1 C 94 % 1012,0 hPa 0,0 l/m 7,9 km/h (2 Bft) S 180 5,2 C 4,5 C
25.11.2012 07:01 6,1 C 94 % 1011,6 hPa 0,0 l/m 9,7 km/h (2 Bft) SO 135 5,2 C 4,0 C
25.11.2012 07:06 6,1 C 94 % 1011,7 hPa 0,0 l/m 12,2 km/h (2 Bft) SO 135 5,2 C 3,6 C
25.11.2012 07:11 6,1 C 94 % 1012,0 hPa 0,0 l/m 18,4 km/h (3 Bft) SO 135 5,2 C 2,6 C
25.11.2012 07:16 6,1 C 94 % 1011,7 hPa 0,0 l/m 14,8 km/h (3 Bft) SO 135 5,2 C 3,1 C
25.11.2012 07:21 6,1 C 94 % 1011,6 hPa 0,0 l/m 7,2 km/h (2 Bft) SO 135 5,2 C 4,6 C
25.11.2012 07:26 6,1 C 94 % 1011,5 hPa 0,0 l/m 10,1 km/h (2 Bft) O-SO 112 5,2 C 4,0 C
25.11.2012 07:31 6,1 C 94 % 1011,5 hPa 0,0 l/m 13,0 km/h (3 Bft) S-SO 157 5,2 C 3,4 C
25.11.2012 07:36 6,1 C 94 % 1011,2 hPa 0,0 l/m 12,2 km/h (2 Bft) SO 135 5,2 C 3,6 C
25.11.2012 07:41 6,1 C 94 % 1011,1 hPa 0,0 l/m 8,3 km/h (2 Bft) S-SO 157 5,2 C 4,4 C
25.11.2012 07:46 6,1 C 94 % 1011,1 hPa 0,0 l/m 14,0 km/h (3 Bft) S-SO 157 5,2 C 3,3 C
25.11.2012 07:51 6,1 C 94 % 1011,3 hPa 0,0 l/m 11,5 km/h (2 Bft) S-SO 157 5,2 C 3,7 C
25.11.2012 07:56 6,1 C 94 % 1011,2 hPa 0,0 l/m 10,4 km/h (2 Bft) O-NO 67 5,2 C 3,9 C
25.11.2012 08:01 6,1 C 94 % 1011,2 hPa 0,0 l/m 14,0 km/h (3 Bft) SO 135 5,2 C 3,3 C
25.11.2012 08:06 6,1 C 93 % 1011,1 hPa 0,0 l/m 6,1 km/h (2 Bft) S-SO 157 5,1 C 5,0 C
25.11.2012 08:11 6,1 C 93 % 1011,1 hPa 0,0 l/m 6,8 km/h (2 Bft) S-SO 157 5,1 C 4,7 C
25.11.2012 08:16 6,1 C 93 % 1011,0 hPa 0,0 l/m 5,0 km/h (1 Bft) O-SO 112 5,1 C 5,3 C
25.11.2012 08:21 6,1 C 93 % 1011,0 hPa 0,0 l/m 6,1 km/h (2 Bft) SO 135 5,1 C 5,0 C
25.11.2012 08:26 6,1 C 93 % 1010,8 hPa 0,0 l/m 11,2 km/h (2 Bft) SO 135 5,1 C 3,7 C
25.11.2012 08:31 6,1 C 93 % 1010,9 hPa 0,0 l/m 9,4 km/h (2 Bft) SO 135 5,1 C 4,1 C
25.11.2012 08:36 6,2 C 93 % 1010,6 hPa 0,0 l/m 3,2 km/h (1 Bft) O-SO 112 5,2 C 6,2 C
25.11.2012 08:41 6,3 C 93 % 1010,6 hPa 0,0 l/m 8,6 km/h (2 Bft) S-SO 157 5,3 C 4,5 C
25.11.2012 08:46 6,3 C 93 % 1010,4 hPa 0,5 l/m 4,7 km/h (1 Bft) SO 135 5,3 C 5,7 C
25.11.2012 08:51 6,3 C 93 % 1010,4 hPa 0,0 l/m 3,2 km/h (1 Bft) O-SO 112 5,3 C 6,3 C
25.11.2012 08:56 6,3 C 93 % 1010,3 hPa 0,0 l/m 5,4 km/h (1 Bft) O-SO 112 5,3 C 5,4 C
25.11.2012 09:01 6,3 C 94 % 1010,2 hPa 0,0 l/m 4,3 km/h (1 Bft) S-SO 157 5,4 C 6,3 C
25.11.2012 09:06 6,3 C 93 % 1010,3 hPa 0,0 l/m 10,4 km/h (2 Bft) O-SO 112 5,3 C 4,1 C
25.11.2012 09:11 6,3 C 93 % 1010,2 hPa 0,0 l/m 13,7 km/h (3 Bft) SO 135 5,3 C 3,5 C
25.11.2012 09:16 6,3 C 93 % 1010,2 hPa 0,0 l/m 4,3 km/h (1 Bft) O-SO 112 5,3 C 6,3 C
25.11.2012 09:21 6,3 C 93 % 1010,3 hPa 0,0 l/m 6,5 km/h (2 Bft) SO 135 5,3 C 5,1 C
25.11.2012 09:26 6,3 C 93 % 1010,3 hPa 0,0 l/m 3,2 km/h (1 Bft) S-SO 157 5,3 C 6,3 C
25.11.2012 09:31 6,3 C 93 % 1010,2 hPa 0,0 l/m 9,4 km/h (2 Bft) O-SO 112 5,3 C 4,3 C
25.11.2012 09:36 6,3 C 93 % 1010,1 hPa 0,0 l/m 7,6 km/h (2 Bft) SO 135 5,3 C 4,8 C
25.11.2012 09:41 6,4 C 93 % 1010,0 hPa 0,0 l/m 6,8 km/h (2 Bft) SO 135 5,4 C 5,1 C
25.11.2012 09:46 6,4 C 93 % 1010,2 hPa 0,0 l/m 10,1 km/h (2 Bft) SO 135 5,4 C 4,3 C
25.11.2012 09:51 6,4 C 93 % 1009,8 hPa 0,0 l/m 7,6 km/h (2 Bft) O-SO 112 5,4 C 4,9 C
25.11.2012 09:56 6,5 C 93 % 1010,1 hPa 0,0 l/m 13,3 km/h (3 Bft) SO 135 5,5 C 3,9 C
25.11.2012 10:01 6,5 C 93 % 1009,9 hPa 0,0 l/m 4,0 km/h (1 Bft) SO 135 5,5 C 6,5 C
25.11.2012 10:06 6,7 C 93 % 1010,0 hPa 0,0 l/m 11,9 km/h (2 Bft) SO 135 5,6 C 4,3 C
25.11.2012 10:11 6,8 C 93 % 1009,8 hPa 0,0 l/m 6,1 km/h (2 Bft) S-SO 157 5,7 C 5,8 C
25.11.2012 10:16 6,9 C 93 % 1010,0 hPa 0,0 l/m 7,9 km/h (2 Bft) SO 135 5,8 C 5,4 C
25.11.2012 10:21 6,9 C 92 % 1009,8 hPa 0,0 l/m 14,8 km/h (3 Bft) SO 135 5,7 C 4,1 C
25.11.2012 10:26 7,1 C 92 % 1009,6 hPa 0,0 l/m 10,8 km/h (2 Bft) S-SO 157 5,9 C 5,0 C
25.11.2012 10:31 7,2 C 92 % 1009,7 hPa 0,0 l/m 7,2 km/h (2 Bft) SO 135 6,0 C 5,9 C
25.11.2012 10:36 7,2 C 92 % 1009,6 hPa 0,0 l/m 7,6 km/h (2 Bft) S 180 6,0 C 5,8 C
25.11.2012 10:41 7,4 C 92 % 1009,6 hPa 0,0 l/m 15,1 km/h (3 Bft) SO 135 6,2 C 4,7 C
25.11.2012 10:46 7,4 C 91 % 1009,7 hPa 0,0 l/m 4,3 km/h (1 Bft) S-SO 157 6,0 C 7,4 C
25.11.2012 10:51 7,5 C 91 % 1009,6 hPa 0,0 l/m 13,3 km/h (3 Bft) S 180 6,1 C 5,1 C
25.11.2012 10:56 7,5 C 91 % 1009,3 hPa 0,0 l/m 6,1 km/h (2 Bft) S-SW 202 6,1 C 6,6 C
25.11.2012 11:01 7,5 C 91 % 1009,4 hPa 0,0 l/m 5,0 km/h (1 Bft) S 180 6,1 C 6,9 C
25.11.2012 11:06 7,6 C 91 % 1009,3 hPa 0,0 l/m 4,7 km/h (1 Bft) S-SW 202 6,2 C 7,1 C
25.11.2012 11:11 7,6 C 91 % 1009,2 hPa 0,0 l/m 3,2 km/h (1 Bft) O-SO 112 6,2 C 7,6 C
25.11.2012 11:16 7,7 C 91 % 1009,4 hPa 0,0 l/m 5,4 km/h (1 Bft) S-SW 202 6,3 C 7,0 C
25.11.2012 11:21 7,8 C 91 % 1009,2 hPa 0,0 l/m 7,6 km/h (2 Bft) S 180 6,4 C 6,5 C
25.11.2012 11:26 7,9 C 91 % 1009,2 hPa 0,0 l/m 16,6 km/h (3 Bft) S-SW 202 6,5 C 5,1 C
25.11.2012 11:31 7,9 C 91 % 1009,2 hPa 0,0 l/m 11,9 km/h (2 Bft) S-SW 202 6,5 C 5,8 C
25.11.2012 11:36 8,1 C 90 % 1008,9 hPa 0,0 l/m 9,0 km/h (2 Bft) W-SW 247 6,6 C 6,6 C
25.11.2012 11:41 8,3 C 90 % 1008,9 hPa 0,0 l/m 10,4 km/h (2 Bft) SW 225 6,8 C 6,5 C
25.11.2012 11:46 8,3 C 90 % 1008,7 hPa 0,0 l/m 7,2 km/h (2 Bft) S-SW 202 6,8 C 7,2 C
25.11.2012 11:51 8,4 C 90 % 1008,8 hPa 0,0 l/m 19,8 km/h (3 Bft) S-SW 202 6,9 C 5,4 C
25.11.2012 11:56 8,5 C 89 % 1008,7 hPa 0,0 l/m 3,6 km/h (1 Bft) S 180 6,8 C 8,5 C
25.11.2012 12:01 8,6 C 89 % 1008,5 hPa 0,0 l/m 9,7 km/h (2 Bft) S-SW 202 6,9 C 7,0 C
25.11.2012 12:06 8,6 C 89 % 1008,4 hPa 0,0 l/m 3,2 km/h (1 Bft) S-SO 157 6,9 C 8,6 C
25.11.2012 12:11 8,8 C 89 % 1008,6 hPa 0,0 l/m 3,2 km/h (1 Bft) S-SW 202 7,1 C 8,8 C
25.11.2012 12:16 8,8 C 89 % 1008,5 hPa 0,0 l/m 9,7 km/h (2 Bft) SW 225 7,1 C 7,3 C
25.11.2012 12:21 8,9 C 89 % 1008,4 hPa 0,0 l/m 12,2 km/h (2 Bft) SW 225 7,2 C 7,0 C
25.11.2012 12:26 8,9 C 88 % 1008,4 hPa 0,0 l/m 8,6 km/h (2 Bft) S 180 7,0 C 7,6 C
25.11.2012 12:31 8,9 C 88 % 1008,4 hPa 0,0 l/m 9,7 km/h (2 Bft) S-SO 157 7,0 C 7,4 C
25.11.2012 12:36 9,0 C 88 % 1008,3 hPa 0,0 l/m 6,8 km/h (2 Bft) SW 225 7,1 C 8,1 C
25.11.2012 12:41 9,1 C 88 % 1008,3 hPa 0,0 l/m 9,4 km/h (2 Bft) SW 225 7,2 C 7,7 C
25.11.2012 12:46 9,1 C 88 % 1008,2 hPa 0,0 l/m 11,9 km/h (2 Bft) S-SW 202 7,2 C 7,2 C
25.11.2012 12:51 9,2 C 88 % 1008,1 hPa 0,0 l/m 10,8 km/h (2 Bft) SW 225 7,3 C 7,5 C
25.11.2012 12:56 9,3 C 88 % 1008,3 hPa 0,0 l/m 6,8 km/h (2 Bft) SW 225 7,4 C 8,5 C
25.11.2012 13:01 9,4 C 88 % 1008,4 hPa 0,0 l/m 9,4 km/h (2 Bft) W 270 7,5 C 8,0 C
25.11.2012 13:06 9,5 C 87 % 1008,4 hPa 0,0 l/m 3,6 km/h (1 Bft) S-SO 157 7,4 C 9,5 C
25.11.2012 13:11 9,8 C 87 % 1008,3 hPa 0,0 l/m 9,7 km/h (2 Bft) W-SW 247 7,7 C 8,4 C
25.11.2012 13:16 9,9 C 86 % 1008,1 hPa 0,0 l/m 10,8 km/h (2 Bft) SW 225 7,7 C 8,4 C
25.11.2012 13:21 10,1 C 86 % 1008,1 hPa 0,0 l/m 20,2 km/h (4 Bft) SW 225 7,9 C 10,1 C
25.11.2012 13:26 10,2 C 85 % 1008,2 hPa 0,0 l/m 11,2 km/h (2 Bft) S-SW 202 7,8 C 10,2 C
25.11.2012 13:31 10,3 C 85 % 1008,2 hPa 0,0 l/m 14,0 km/h (3 Bft) SW 225 7,9 C 10,3 C
25.11.2012 13:36 10,4 C 85 % 1008,0 hPa 0,0 l/m 8,6 km/h (2 Bft) W-SW 247 8,0 C 10,4 C
25.11.2012 13:41 10,5 C 84 % 1008,0 hPa 0,0 l/m 13,7 km/h (3 Bft) W-SW 247 7,9 C 10,5 C
25.11.2012 13:46 10,6 C 84 % 1008,0 hPa 0,0 l/m 6,1 km/h (2 Bft) S 180 8,0 C 10,6 C
25.11.2012 13:51 10,6 C 83 % 1008,1 hPa 0,0 l/m 13,0 km/h (3 Bft) SW 225 7,8 C 10,6 C
25.11.2012 13:56 10,8 C 83 % 1008,0 hPa 0,0 l/m 9,0 km/h (2 Bft) S 180 8,0 C 10,8 C
25.11.2012 14:01 10,8 C 83 % 1008,0 hPa 0,0 l/m 15,5 km/h (3 Bft) SW 225 8,0 C 10,8 C
25.11.2012 14:06 10,8 C 83 % 1008,0 hPa 0,0 l/m 14,0 km/h (3 Bft) S 180 8,0 C 10,8 C
25.11.2012 14:11 10,9 C 83 % 1007,9 hPa 0,0 l/m 12,6 km/h (3 Bft) SW 225 8,1 C 10,9 C
25.11.2012 14:16 10,9 C 83 % 1008,0 hPa 0,0 l/m 19,4 km/h (3 Bft) SW 225 8,1 C 10,9 C
25.11.2012 14:21 10,9 C 82 % 1008,2 hPa 0,0 l/m 8,6 km/h (2 Bft) W-SW 247 7,9 C 10,9 C
25.11.2012 14:26 10,9 C 82 % 1008,1 hPa 0,0 l/m 19,1 km/h (3 Bft) SW 225 7,9 C 10,9 C
25.11.2012 14:31 11,0 C 82 % 1008,3 hPa 0,0 l/m 10,1 km/h (2 Bft) W 270 8,0 C 11,0 C
25.11.2012 14:36 11,2 C 81 % 1008,1 hPa 0,0 l/m 7,9 km/h (2 Bft) S-SW 202 8,1 C 11,2 C
25.11.2012 14:41 11,3 C 81 % 1008,2 hPa 0,0 l/m 16,2 km/h (3 Bft) W-SW 247 8,2 C 11,3 C
25.11.2012 14:46 11,2 C 81 % 1008,3 hPa 0,0 l/m 6,1 km/h (2 Bft) S 180 8,1 C 11,2 C
25.11.2012 14:51 11,2 C 82 % 1008,3 hPa 0,0 l/m 10,8 km/h (2 Bft) W-SW 247 8,2 C 11,2 C
25.11.2012 14:56 11,1 C 82 % 1008,3 hPa 0,0 l/m 9,7 km/h (2 Bft) W-SW 247 8,1 C 11,1 C
25.11.2012 15:01 11,1 C 83 % 1008,4 hPa 0,0 l/m 3,6 km/h (1 Bft) S-SO 157 8,3 C 11,1 C
25.11.2012 15:06 10,9 C 83 % 1008,5 hPa 0,0 l/m 9,7 km/h (2 Bft) W 270 8,1 C 10,9 C
25.11.2012 15:11 10,9 C 83 % 1008,7 hPa 0,0 l/m 7,2 km/h (2 Bft) NW 315 8,1 C 10,9 C
25.11.2012 15:16 10,8 C 84 % 1008,9 hPa 0,0 l/m 12,2 km/h (2 Bft) W-SW 247 8,2 C 10,8 C
25.11.2012 15:21 10,7 C 84 % 1008,9 hPa 0,0 l/m 12,6 km/h (3 Bft) W-SW 247 8,1 C 10,7 C
25.11.2012 15:26 10,7 C 84 % 1008,8 hPa 0,0 l/m 5,0 km/h (1 Bft) W-SW 247 8,1 C 10,7 C
25.11.2012 15:31 10,7 C 83 % 1008,9 hPa 0,0 l/m 8,6 km/h (2 Bft) W-NW 292 7,9 C 10,7 C
25.11.2012 15:36 10,6 C 82 % 1009,0 hPa 0,0 l/m 14,8 km/h (3 Bft) W 270 7,7 C 10,6 C
25.11.2012 15:41 10,6 C 82 % 1008,9 hPa 0,0 l/m 9,0 km/h (2 Bft) W 270 7,7 C 10,6 C
25.11.2012 15:46 10,5 C 82 % 1009,0 hPa 0,0 l/m 10,1 km/h (2 Bft) W-SW 247 7,6 C 10,5 C
25.11.2012 15:51 10,4 C 82 % 1009,0 hPa 0,0 l/m 10,1 km/h (2 Bft) W-SW 247 7,5 C 10,4 C
25.11.2012 15:56 10,4 C 81 % 1009,0 hPa 0,0 l/m 6,5 km/h (2 Bft) W-SW 247 7,3 C 10,4 C
25.11.2012 16:01 10,3 C 81 % 1009,1 hPa 0,0 l/m 20,2 km/h (4 Bft) W 270 7,2 C 10,3 C
25.11.2012 16:06 10,1 C 81 % 1009,0 hPa 0,0 l/m 13,0 km/h (3 Bft) W 270 7,0 C 10,1 C
25.11.2012 16:11 10,1 C 81 % 1009,1 hPa 0,0 l/m 20,9 km/h (4 Bft) W 270 7,0 C 10,1 C
25.11.2012 16:16 9,9 C 81 % 1009,5 hPa 0,0 l/m 12,2 km/h (2 Bft) W-SW 247 6,8 C 8,2 C
25.11.2012 16:21 9,9 C 82 % 1009,5 hPa 0,0 l/m 13,0 km/h (3 Bft) W 270 7,0 C 8,1 C
25.11.2012 16:26 9,8 C 82 % 1009,7 hPa 0,0 l/m 7,6 km/h (2 Bft) W-SW 247 6,9 C 8,9 C
25.11.2012 16:31 9,6 C 82 % 1009,6 hPa 0,0 l/m 14,0 km/h (3 Bft) W 270 6,7 C 7,5 C
25.11.2012 16:36 9,5 C 82 % 1009,7 hPa 0,0 l/m 9,0 km/h (2 Bft) W-SW 247 6,6 C 8,2 C
25.11.2012 16:41 9,4 C 82 % 1009,8 hPa 0,0 l/m 11,2 km/h (2 Bft) W-SW 247 6,5 C 7,7 C
25.11.2012 16:46 9,3 C 83 % 1009,7 hPa 0,0 l/m 6,1 km/h (2 Bft) W-SW 247 6,6 C 8,6 C
25.11.2012 16:51 9,3 C 83 % 1009,8 hPa 0,0 l/m 10,4 km/h (2 Bft) W-SW 247 6,6 C 7,7 C
25.11.2012 16:56 9,2 C 83 % 1010,1 hPa 0,0 l/m 11,2 km/h (2 Bft) W-SW 247 6,5 C 7,5 C
25.11.2012 17:01 9,1 C 83 % 1010,1 hPa 0,0 l/m 7,6 km/h (2 Bft) W-SW 247 6,4 C 8,0 C
25.11.2012 17:06 9,0 C 83 % 1010,1 hPa 0,0 l/m 3,6 km/h (1 Bft) W 270 6,3 C 9,0 C
25.11.2012 17:11 8,9 C 83 % 1010,2 hPa 0,0 l/m 10,4 km/h (2 Bft) W-SW 247 6,2 C 7,2 C
25.11.2012 17:16 8,9 C 82 % 1010,2 hPa 0,0 l/m 19,4 km/h (3 Bft) W-SW 247 6,0 C 6,0 C
25.11.2012 17:21 8,9 C 82 % 1010,2 hPa 0,0 l/m 5,0 km/h (1 Bft) W-SW 247 6,0 C 8,5 C
25.11.2012 17:26 8,9 C 82 % 1010,2 hPa 0,0 l/m 11,2 km/h (2 Bft) W-SW 247 6,0 C 7,1 C
25.11.2012 17:31 8,9 C 81 % 1010,3 hPa 0,0 l/m 5,8 km/h (2 Bft) W 270 5,8 C 8,3 C
25.11.2012 17:36 8,9 C 81 % 1010,4 hPa 0,0 l/m 9,0 km/h (2 Bft) W-SW 247 5,8 C 7,5 C
25.11.2012 17:41 8,8 C 81 % 1010,5 hPa 0,0 l/m 5,8 km/h (2 Bft) W-SW 247 5,7 C 8,1 C
25.11.2012 17:46 8,8 C 81 % 1010,6 hPa 0,0 l/m 6,5 km/h (2 Bft) W-SW 247 5,7 C 8,0 C
25.11.2012 17:51 8,6 C 80 % 1010,6 hPa 0,0 l/m 9,0 km/h (2 Bft) W 270 5,3 C 7,2 C
25.11.2012 17:56 8,5 C 80 % 1010,7 hPa 0,0 l/m 4,0 km/h (1 Bft) W-SW 247 5,3 C 8,5 C
25.11.2012 18:01 8,4 C 80 % 1010,7 hPa 0,0 l/m 9,4 km/h (2 Bft) W-SW 247 5,2 C 6,8 C
25.11.2012 18:06 8,3 C 80 % 1010,8 hPa 0,0 l/m 6,1 km/h (2 Bft) W 270 5,1 C 7,5 C
25.11.2012 18:11 8,2 C 80 % 1010,8 hPa 0,0 l/m 7,6 km/h (2 Bft) SW 225 5,0 C 7,0 C
25.11.2012 18:16 8,1 C 80 % 1010,7 hPa 0,0 l/m 3,6 km/h (1 Bft) W-SW 247 4,9 C 8,1 C
25.11.2012 18:21 8,1 C 79 % 1010,8 hPa 0,0 l/m 5,0 km/h (1 Bft) SW 225 4,7 C 7,6 C
25.11.2012 18:26 8,1 C 79 % 1010,7 hPa 0,0 l/m 5,8 km/h (2 Bft) W-SW 247 4,7 C 7,3 C
25.11.2012 18:31 7,9 C 79 % 1010,7 hPa 0,0 l/m 4,7 km/h (1 Bft) S-SW 202 4,5 C 7,5 C
25.11.2012 18:36 7,9 C 80 % 1010,9 hPa 0,0 l/m 5,8 km/h (2 Bft) S-SW 202 4,7 C 7,1 C
25.11.2012 18:41 7,9 C 80 % 1010,9 hPa 0,0 l/m 8,3 km/h (2 Bft) S-SW 202 4,7 C 6,5 C
25.11.2012 18:46 7,8 C 80 % 1011,0 hPa 0,0 l/m 9,4 km/h (2 Bft) S-SW 202 4,6 C 6,1 C
25.11.2012 18:51 7,8 C 80 % 1011,1 hPa 0,0 l/m 6,8 km/h (2 Bft) W-SW 247 4,6 C 6,7 C
25.11.2012 18:56 7,8 C 80 % 1011,1 hPa 0,0 l/m 10,8 km/h (2 Bft) W-SW 247 4,6 C 5,9 C
25.11.2012 19:01 7,8 C 79 % 1011,1 hPa 0,0 l/m 6,8 km/h (2 Bft) SW 225 4,4 C 6,7 C
25.11.2012 19:06 7,8 C 78 % 1011,1 hPa 0,0 l/m 9,4 km/h (2 Bft) SW 225 4,2 C 6,1 C
25.11.2012 19:11 7,9 C 77 % 1011,1 hPa 0,0 l/m 9,4 km/h (2 Bft) W-SW 247 4,1 C 6,2 C
25.11.2012 19:16 7,8 C 76 % 1011,2 hPa 0,0 l/m 10,8 km/h (2 Bft) SW 225 3,8 C 5,9 C
25.11.2012 19:21 7,8 C 76 % 1011,3 hPa 0,0 l/m 10,1 km/h (2 Bft) W-SW 247 3,8 C 6,0 C
25.11.2012 19:26 7,8 C 76 % 1011,3 hPa 0,0 l/m 10,1 km/h (2 Bft) S-SW 202 3,8 C 6,0 C
25.11.2012 19:31 7,8 C 75 % 1011,1 hPa 0,0 l/m 4,7 km/h (1 Bft) S-SW 202 3,7 C 7,4 C
25.11.2012 19:36 7,6 C 74 % 1011,2 hPa 0,0 l/m 11,9 km/h (2 Bft) S-SW 202 3,3 C 5,4 C
25.11.2012 19:41 7,6 C 74 % 1011,3 hPa 0,0 l/m 13,3 km/h (3 Bft) S-SW 202 3,3 C 5,2 C
25.11.2012 19:46 7,6 C 74 % 1011,2 hPa 0,0 l/m 10,1 km/h (2 Bft) S-SW 202 3,3 C 5,7 C
25.11.2012 19:51 7,5 C 74 % 1011,2 hPa 0,0 l/m 9,4 km/h (2 Bft) W-SW 247 3,2 C 5,8 C
25.11.2012 19:56 7,5 C 74 % 1011,3 hPa 0,0 l/m 2,5 km/h (1 Bft) S 180 3,2 C 7,5 C
25.11.2012 20:01 7,4 C 74 % 1011,2 hPa 0,0 l/m 8,3 km/h (2 Bft) S-SW 202 3,1 C 5,9 C
25.11.2012 20:06 7,2 C 75 % 1011,1 hPa 0,0 l/m 9,7 km/h (2 Bft) W-SW 247 3,1 C 5,3 C
25.11.2012 20:11 7,2 C 75 % 1011,2 hPa 0,0 l/m 9,7 km/h (2 Bft) SW 225 3,1 C 5,3 C
25.11.2012 20:16 7,1 C 75 % 1011,1 hPa 0,0 l/m 8,6 km/h (2 Bft) S-SW 202 3,0 C 5,5 C
25.11.2012 20:21 6,9 C 75 % 1011,3 hPa 0,0 l/m 14,4 km/h (3 Bft) SW 225 2,8 C 4,2 C
25.11.2012 20:26 6,9 C 75 % 1011,3 hPa 0,0 l/m 7,9 km/h (2 Bft) SW 225 2,8 C 5,4 C
25.11.2012 20:31 6,8 C 75 % 1011,5 hPa 0,0 l/m 12,6 km/h (3 Bft) S 180 2,7 C 4,3 C
25.11.2012 20:36 6,8 C 75 % 1011,6 hPa 0,0 l/m 6,5 km/h (2 Bft) S-SW 202 2,7 C 5,6 C
25.11.2012 20:41 6,8 C 75 % 1011,6 hPa 0,0 l/m 8,6 km/h (2 Bft) S-SW 202 2,7 C 5,1 C
25.11.2012 20:46 6,8 C 75 % 1011,4 hPa 0,0 l/m 20,9 km/h (4 Bft) S-SW 202 2,7 C 3,2 C
25.11.2012 20:51 6,8 C 76 % 1011,4 hPa 0,0 l/m 14,4 km/h (3 Bft) S-SW 202 2,9 C 4,1 C
25.11.2012 20:56 6,9 C 75 % 1011,4 hPa 0,0 l/m 13,0 km/h (3 Bft) SW 225 2,8 C 4,4 C
25.11.2012 21:01 6,9 C 75 % 1011,4 hPa 0,0 l/m 16,2 km/h (3 Bft) W 270 2,8 C 3,9 C
25.11.2012 21:06 6,9 C 76 % 1011,3 hPa 0,0 l/m 10,1 km/h (2 Bft) W-SW 247 3,0 C 4,9 C
25.11.2012 21:11 6,8 C 76 % 1011,3 hPa 0,0 l/m 6,1 km/h (2 Bft) W-SW 247 2,9 C 5,8 C
25.11.2012 21:16 6,8 C 76 % 1011,4 hPa 0,0 l/m 6,8 km/h (2 Bft) S-SO 157 2,9 C 5,6 C
25.11.2012 21:21 6,8 C 76 % 1011,4 hPa 0,0 l/m 11,9 km/h (2 Bft) S-SW 202 2,9 C 4,5 C
25.11.2012 21:26 6,8 C 76 % 1011,4 hPa 0,0 l/m 7,6 km/h (2 Bft) W-SW 247 2,9 C 5,3 C
25.11.2012 21:31 6,8 C 76 % 1011,3 hPa 0,0 l/m 19,1 km/h (3 Bft) S-SW 202 2,9 C 3,4 C
25.11.2012 21:36 6,9 C 76 % 1011,5 hPa 0,0 l/m 24,1 km/h (4 Bft) SW 225 3,0 C 3,0 C
25.11.2012 21:41 6,9 C 75 % 1011,5 hPa 0,0 l/m 7,9 km/h (2 Bft) S 180 2,8 C 5,4 C
25.11.2012 21:46 6,9 C 75 % 1011,4 hPa 0,0 l/m 10,8 km/h (2 Bft) W 270 2,8 C 4,8 C
25.11.2012 21:51 7,0 C 75 % 1011,5 hPa 0,0 l/m 8,3 km/h (2 Bft) W-SW 247 2,9 C 5,4 C
25.11.2012 21:56 7,0 C 75 % 1011,5 hPa 0,0 l/m 7,9 km/h (2 Bft) SW 225 2,9 C 5,5 C
25.11.2012 22:01 7,1 C 75 % 1011,6 hPa 0,0 l/m 19,4 km/h (3 Bft) SW 225 3,0 C 3,8 C
25.11.2012 22:06 7,1 C 75 % 1011,6 hPa 0,0 l/m 10,8 km/h (2 Bft) S-SW 202 3,0 C 5,0 C
25.11.2012 22:11 7,1 C 75 % 1011,7 hPa 0,0 l/m 7,9 km/h (2 Bft) S 180 3,0 C 5,6 C
25.11.2012 22:16 7,0 C 75 % 1011,5 hPa 0,0 l/m 12,6 km/h (3 Bft) S-SW 202 2,9 C 4,6 C
25.11.2012 22:21 6,9 C 75 % 1011,6 hPa 0,0 l/m 19,1 km/h (3 Bft) S-SW 202 2,8 C 3,6 C
25.11.2012 22:26 6,9 C 75 % 1011,4 hPa 0,0 l/m 7,6 km/h (2 Bft) NW 315 2,8 C 5,5 C
25.11.2012 22:31 6,9 C 75 % 1011,5 hPa 0,0 l/m 8,6 km/h (2 Bft) W-SW 247 2,8 C 5,2 C
25.11.2012 22:36 6,9 C 75 % 1011,4 hPa 0,0 l/m 16,9 km/h (3 Bft) SW 225 2,8 C 3,8 C
25.11.2012 22:41 6,9 C 75 % 1011,6 hPa 0,0 l/m 10,8 km/h (2 Bft) W 270 2,8 C 4,8 C
25.11.2012 22:46 7,0 C 74 % 1011,7 hPa 0,0 l/m 13,7 km/h (3 Bft) S-SW 202 2,7 C 4,4 C
25.11.2012 22:51 7,0 C 74 % 1011,6 hPa 0,0 l/m 11,9 km/h (2 Bft) W-SW 247 2,7 C 4,7 C
25.11.2012 22:56 7,1 C 74 % 1011,5 hPa 0,0 l/m 25,6 km/h (4 Bft) S-SO 157 2,8 C 3,2 C
25.11.2012 23:01 7,2 C 74 % 1011,5 hPa 0,0 l/m 14,4 km/h (3 Bft) W-SW 247 2,9 C 4,5 C
25.11.2012 23:06 7,2 C 74 % 1011,6 hPa 0,0 l/m 13,3 km/h (3 Bft) S-SW 202 2,9 C 4,7 C
25.11.2012 23:11 7,2 C 74 % 1011,6 hPa 0,0 l/m 8,3 km/h (2 Bft) SW 225 2,9 C 5,6 C
25.11.2012 23:16 7,2 C 75 % 1011,7 hPa 0,0 l/m 10,8 km/h (2 Bft) S 180 3,1 C 5,1 C
25.11.2012 23:21 6,9 C 75 % 1011,6 hPa 0,0 l/m 5,0 km/h (1 Bft) W-SW 247 2,8 C 6,2 C
25.11.2012 23:26 6,7 C 75 % 1011,8 hPa 0,0 l/m 8,3 km/h (2 Bft) S 180 2,6 C 5,1 C
25.11.2012 23:31 6,4 C 76 % 1011,7 hPa 0,0 l/m 9,4 km/h (2 Bft) S-SW 202 2,5 C 4,5 C
25.11.2012 23:36 6,3 C 77 % 1011,8 hPa 0,0 l/m 4,7 km/h (1 Bft) S 180 2,6 C 5,7 C
25.11.2012 23:41 6,1 C 78 % 1012,0 hPa 0,0 l/m 9,0 km/h (2 Bft) S-SW 202 2,6 C 4,2 C
25.11.2012 23:46 6,1 C 78 % 1011,9 hPa 0,0 l/m 8,3 km/h (2 Bft) W-SW 247 2,6 C 4,4 C
25.11.2012 23:51 5,9 C 78 % 1012,0 hPa 0,0 l/m 8,6 km/h (2 Bft) S-SW 202 2,4 C 4,0 C
25.11.2012 23:56 5,9 C 79 % 1012,0 hPa 0,0 l/m 10,4 km/h (2 Bft) SW 225 2,5 C 3,7 C
_ Min-Zeit 00:01 19:36 14:11 - 19:56 - - 23:51 00:46
Minimum _ 5,0 C 74 % 1007,9 hPa - 2,5 km/h (1 Bft) - - 2,4 C 2,3 C
_ Max-Zeit 14:41 01:26 00:01 00:06 22:56 - - 15:01 14:41
Maximum _ 11,3 C 95 % 1018,4 hPa 0,5 l/m 25,6 km/h
S-SO (4 Bft)
- - 8,3 C 11,3 C
Durchschnitt _ 7,4 C 87 % 1011,6 hPa #1,6 l/m 9,5 km/h (2 Bft) SO - 5,2 C 5,9 C
(c) by David Heller